createdAt,value
2022-08-27T00:01:28.731Z,101671.72
2022-08-27T00:03:57.135Z,101676.78
2022-08-27T00:06:26.306Z,101670.38
2022-08-27T00:08:55.687Z,101665.91
2022-08-27T00:11:25.523Z,101658.69
2022-08-27T00:13:53.763Z,101675.25
2022-08-27T00:16:22.488Z,101662.75
2022-08-27T00:18:51.923Z,101663.31
2022-08-27T00:21:19.858Z,101665.81
2022-08-27T00:23:48.381Z,101664.75
2022-08-27T00:26:17.091Z,101661.97
2022-08-27T00:28:45.547Z,101664.59
2022-08-27T00:31:13.439Z,101661.97
2022-08-27T00:33:41.650Z,101661.97
2022-08-27T00:36:12.566Z,101665.28
2022-08-27T00:38:41.484Z,101661.69
2022-08-27T00:41:12.070Z,101663.22
2022-08-27T00:43:49.702Z,101662.16
2022-08-27T00:46:24.211Z,101653.25
2022-08-27T00:48:55.408Z,101662.00
2022-08-27T00:51:25.747Z,101657.31
2022-08-27T00:53:55.632Z,101657.03
2022-08-27T00:56:27.664Z,101662.06
2022-08-27T00:58:57.491Z,101652.19
2022-08-27T01:01:29.061Z,101642.41
2022-08-27T01:04:01.212Z,101643.41
2022-08-27T01:06:37.631Z,101645.66
2022-08-27T01:09:08.987Z,101647.44
2022-08-27T01:11:38.102Z,101642.28
2022-08-27T01:14:07.193Z,101639.63
2022-08-27T01:16:38.543Z,101639.50
2022-08-27T01:19:11.591Z,101643.72
2022-08-27T01:21:47.102Z,101647.88
2022-08-27T01:24:35.760Z,101652.06
2022-08-27T01:27:05.759Z,101649.28
2022-08-27T01:29:37.234Z,101647.34
2022-08-27T01:32:10.780Z,101650.56
2022-08-27T01:34:39.658Z,101641.66
2022-08-27T01:37:08.115Z,101645.84
2022-08-27T01:39:40.712Z,101640.13
2022-08-27T01:42:10.765Z,101634.69
2022-08-27T01:44:48.657Z,101621.56
2022-08-27T01:47:17.807Z,101622.69
2022-08-27T01:49:45.783Z,101605.38
2022-08-27T01:52:15.915Z,101615.97
2022-08-27T01:54:45.191Z,101618.34
2022-08-27T01:57:13.738Z,101605.09
2022-08-27T01:59:42.738Z,101613.19
2022-08-27T02:02:13.018Z,101617.53
2022-08-27T02:04:41.330Z,101610.53
2022-08-27T02:07:10.971Z,101611.25
2022-08-27T02:09:38.997Z,101609.59
2022-08-27T02:12:09.091Z,101609.59
2022-08-27T02:14:37.172Z,101604.16
2022-08-27T02:17:05.160Z,101610.13
2022-08-27T02:19:33.060Z,101610.13
2022-08-27T02:22:01.061Z,101607.34
2022-08-27T02:24:29.338Z,101610.69
2022-08-27T02:26:58.646Z,101606.25
2022-08-27T02:29:27.957Z,101600.81
2022-08-27T02:31:55.928Z,101600.09
2022-08-27T02:34:23.825Z,101596.47
2022-08-27T02:36:52.512Z,101594.81
2022-08-27T02:39:20.694Z,101592.16
2022-08-27T02:41:48.698Z,101594.81
2022-08-27T02:44:17.022Z,101592.88
2022-08-27T02:46:46.405Z,101591.88
2022-08-27T02:49:15.425Z,101593.69
2022-08-27T02:51:43.372Z,101587.44
2022-08-27T02:54:12.154Z,101587.28
2022-08-27T02:56:40.110Z,101593.41
2022-08-27T02:59:08.000Z,101576.53
2022-08-27T03:01:36.598Z,101576.41
2022-08-27T03:04:06.002Z,101579.75
2022-08-27T03:06:33.881Z,101580.44
2022-08-27T03:09:01.787Z,101577.66
2022-08-27T03:11:29.768Z,101578.50
2022-08-27T03:13:57.783Z,101583.69
2022-08-27T03:16:25.904Z,101574.75
2022-08-27T03:18:53.134Z,101571.94
2022-08-27T03:21:24.798Z,101574.47
2022-08-27T03:23:53.351Z,101577.13
2022-08-27T03:26:22.918Z,101574.47
2022-08-27T03:28:50.790Z,101571.81
2022-08-27T03:31:27.227Z,101577.97
2022-08-27T03:33:56.710Z,101582.56
2022-08-27T03:36:26.363Z,101581.44
2022-08-27T03:38:54.854Z,101574.31
2022-08-27T03:41:23.901Z,101571.53
2022-08-27T03:44:12.051Z,101572.53
2022-08-27T03:46:49.179Z,101576.97
2022-08-27T03:49:20.377Z,101572.38
2022-08-27T03:51:51.127Z,101567.06
2022-08-27T03:54:19.326Z,101573.06
2022-08-27T03:56:47.223Z,101573.06
2022-08-27T03:59:15.915Z,101572.91
2022-08-27T04:01:44.513Z,101575.56
2022-08-27T04:04:13.106Z,101568.47
2022-08-27T04:06:41.363Z,101563.16
2022-08-27T04:09:10.631Z,101550.75
2022-08-27T04:11:38.936Z,101549.75
2022-08-27T04:14:18.214Z,101560.38
2022-08-27T04:16:55.979Z,101556.88
2022-08-27T04:19:27.615Z,101558.56
2022-08-27T04:22:00.881Z,101555.91
2022-08-27T04:24:31.601Z,101554.78
2022-08-27T04:27:00.102Z,101571.56
2022-08-27T04:29:28.583Z,101580.31
2022-08-27T04:31:57.244Z,101570.41
2022-08-27T04:34:25.338Z,101572.09
2022-08-27T04:36:56.628Z,101566.50
2022-08-27T04:39:25.376Z,101570.81
2022-08-27T04:41:56.223Z,101570.53
2022-08-27T04:44:24.824Z,101577.53
2022-08-27T04:46:56.748Z,101569.44
2022-08-27T04:49:25.042Z,101563.84
2022-08-27T04:51:53.294Z,101562.75
2022-08-27T04:54:26.008Z,101558.41
2022-08-27T04:57:02.873Z,101564.53
2022-08-27T04:59:31.214Z,101558.31
2022-08-27T05:01:59.531Z,101557.19
2022-08-27T05:04:27.475Z,101549.78
2022-08-27T05:06:55.698Z,101550.31
2022-08-27T05:09:24.588Z,101541.25
2022-08-27T05:11:55.574Z,101538.31
2022-08-27T05:14:29.998Z,101530.88
2022-08-27T05:16:59.012Z,101533.97
2022-08-27T05:19:27.496Z,101533.81
2022-08-27T05:21:55.731Z,101535.47
2022-08-27T05:24:24.049Z,101535.34
2022-08-27T05:26:52.566Z,101532.53
2022-08-27T05:29:20.643Z,101525.28
2022-08-27T05:31:50.405Z,101525.00
2022-08-27T05:34:26.978Z,101528.31
2022-08-27T05:36:55.685Z,101531.69
2022-08-27T05:39:23.799Z,101531.41
2022-08-27T05:41:52.946Z,101532.78
2022-08-27T05:47:10.959Z,101531.66
2022-08-27T05:49:39.006Z,101533.19
2022-08-27T05:52:09.705Z,101532.91
2022-08-27T05:54:37.687Z,101538.91
2022-08-27T05:57:06.050Z,101535.13
2022-08-27T05:59:51.253Z,101540.28
2022-08-27T06:02:20.780Z,101538.47
2022-08-27T06:04:48.855Z,101530.38
2022-08-27T06:07:17.253Z,101528.38
2022-08-27T06:09:45.135Z,101527.13
2022-08-27T06:12:13.038Z,101532.16
2022-08-27T06:14:41.097Z,101524.84
2022-08-27T06:17:09.028Z,101527.34
2022-08-27T06:19:38.307Z,101529.88
2022-08-27T06:22:09.927Z,101527.06
2022-08-27T06:24:39.502Z,101526.78
2022-08-27T06:27:07.570Z,101530.94
2022-08-27T06:29:35.726Z,101529.84
2022-08-27T06:32:03.876Z,101527.69
2022-08-27T06:34:31.943Z,101526.78
2022-08-27T06:37:01.175Z,101525.47
2022-08-27T06:39:29.180Z,101527.00
2022-08-27T06:41:58.936Z,101525.72
2022-08-27T06:44:26.879Z,101513.66
2022-08-27T06:46:55.665Z,101516.03
2022-08-27T06:49:23.976Z,101508.59
2022-08-27T06:51:51.882Z,101513.47
2022-08-27T06:54:21.201Z,101515.34
2022-08-27T06:56:49.606Z,101515.91
2022-08-27T06:59:19.844Z,101522.56
2022-08-27T07:01:51.406Z,101516.66
2022-08-27T07:04:22.203Z,101512.56
2022-08-27T07:06:55.732Z,101512.63
2022-08-27T07:09:25.505Z,101506.88
2022-08-27T07:11:53.379Z,101506.56
2022-08-27T07:14:21.919Z,101511.25
2022-08-27T07:16:51.519Z,101509.00
2022-08-27T07:19:21.006Z,101497.78
2022-08-27T07:21:50.713Z,101504.44
2022-08-27T07:24:19.320Z,101505.34
2022-08-27T07:26:48.865Z,101509.88
2022-08-27T07:29:16.815Z,101509.72
2022-08-27T07:31:44.723Z,101509.28
2022-08-27T07:34:13.023Z,101508.97
2022-08-27T07:36:41.452Z,101505.97
2022-08-27T07:39:09.616Z,101516.31
2022-08-27T07:41:58.459Z,101521.66
2022-08-27T07:44:28.046Z,101515.66
2022-08-27T07:46:59.021Z,101525.16
2022-08-27T07:49:28.559Z,101521.34
2022-08-27T07:51:56.711Z,101515.38
2022-08-27T07:54:25.371Z,101524.41
2022-08-27T07:56:55.191Z,101522.13
2022-08-27T07:59:24.650Z,101522.50
2022-08-27T08:01:55.021Z,101512.03
2022-08-27T08:04:23.753Z,101512.09
2022-08-27T08:06:52.658Z,101516.09
2022-08-27T08:09:22.233Z,101516.66
2022-08-27T08:11:50.194Z,101517.84
2022-08-27T08:14:18.348Z,101516.50
2022-08-27T08:16:46.592Z,101504.19
2022-08-27T08:19:15.974Z,101515.38
2022-08-27T08:21:43.884Z,101511.72
2022-08-27T08:24:11.915Z,101518.88
2022-08-27T08:26:42.034Z,101518.03
2022-08-27T08:29:13.353Z,101518.88
2022-08-27T08:31:49.805Z,101511.72
2022-08-27T08:34:20.764Z,101514.06
2022-08-27T08:36:54.501Z,101517.25
2022-08-27T08:39:23.520Z,101521.41
2022-08-27T08:41:54.491Z,101514.59
2022-08-27T08:44:31.027Z,101520.13
2022-08-27T08:47:04.419Z,101513.16
2022-08-27T08:49:41.213Z,101507.34
2022-08-27T08:52:30.657Z,101515.16
2022-08-27T08:55:04.242Z,101526.03
2022-08-27T08:57:37.907Z,101512.88
2022-08-27T09:00:12.441Z,101524.69
2022-08-27T09:02:40.775Z,101517.22
2022-08-27T09:05:11.521Z,101515.22
2022-08-27T09:07:47.582Z,101510.38
2022-08-27T09:10:25.137Z,101519.41
2022-08-27T09:13:02.460Z,101517.13
2022-08-27T09:15:34.906Z,101511.28
2022-08-27T09:18:08.209Z,101515.97
2022-08-27T09:20:48.349Z,101514.31
2022-08-27T09:23:24.474Z,101511.47
2022-08-27T09:25:52.775Z,101510.13
2022-08-27T09:28:43.119Z,101510.13
2022-08-27T09:31:14.211Z,101509.78
2022-08-27T09:33:56.158Z,101510.13
2022-08-27T09:36:26.563Z,101514.97
2022-08-27T09:38:58.984Z,101509.47
2022-08-27T09:41:31.162Z,101511.13
2022-08-27T09:44:03.598Z,101505.97
2022-08-27T09:46:31.743Z,101505.78
2022-08-27T09:49:10.464Z,101511.66
2022-08-27T09:51:42.483Z,101518.47
2022-08-27T09:54:11.372Z,101514.66
2022-08-27T09:56:42.131Z,101499.63
2022-08-27T09:59:12.072Z,101504.63
2022-08-27T10:01:54.907Z,101500.47
2022-08-27T10:04:28.481Z,101502.63
2022-08-27T10:06:57.803Z,101497.47
2022-08-27T10:09:34.340Z,101496.78
2022-08-27T10:12:08.942Z,101499.47
2022-08-27T10:14:42.576Z,101492.63
2022-08-27T10:17:18.351Z,101492.47
2022-08-27T10:20:00.969Z,101496.28
2022-08-27T10:22:42.354Z,101490.44
2022-08-27T10:25:23.128Z,101493.13
2022-08-27T10:28:00.541Z,101493.28
2022-08-27T10:30:40.718Z,101483.94
2022-08-27T10:33:22.796Z,101482.91
2022-08-27T10:36:01.939Z,101490.41
2022-08-27T10:38:44.465Z,101481.94
2022-08-27T10:41:18.503Z,101486.94
2022-08-27T10:44:16.586Z,101481.75
2022-08-27T10:46:58.803Z,101488.97
2022-08-27T10:49:34.262Z,101494.94
2022-08-27T10:52:11.023Z,101494.78
2022-08-27T10:54:47.838Z,101497.63
2022-08-27T10:57:39.861Z,101497.44
2022-08-27T11:00:15.974Z,101499.78
2022-08-27T11:02:48.900Z,101492.59
2022-08-27T11:05:21.223Z,101495.28
2022-08-27T11:07:55.065Z,101499.13
2022-08-27T11:10:29.603Z,101498.97
2022-08-27T11:13:01.050Z,101509.66
2022-08-27T11:15:31.688Z,101502.09
2022-08-27T11:18:05.764Z,101502.28
2022-08-27T11:20:42.004Z,101501.94
2022-08-27T11:23:15.137Z,101495.63
2022-08-27T11:25:51.955Z,101495.28
2022-08-27T11:28:29.845Z,101494.75
2022-08-27T11:31:04.935Z,101503.25
2022-08-27T11:33:45.397Z,101504.94
2022-08-27T11:36:35.080Z,101499.59
2022-08-27T11:39:06.331Z,101500.22
2022-08-27T11:41:55.945Z,101502.72
2022-08-27T11:44:26.603Z,101498.22
2022-08-27T11:46:57.910Z,101495.03
2022-08-27T11:49:30.849Z,101499.88
2022-08-27T11:52:02.363Z,101500.69
2022-08-27T11:54:33.630Z,101500.69
2022-08-27T11:57:02.923Z,101498.50
2022-08-27T11:59:33.637Z,101491.50
2022-08-27T12:02:20.204Z,101494.34
2022-08-27T12:04:49.816Z,101493.34
2022-08-27T12:07:30.767Z,101495.84
2022-08-27T12:10:19.763Z,101487.31
2022-08-27T12:13:02.753Z,101486.63
2022-08-27T12:15:46.560Z,101490.31
2022-08-27T12:18:37.227Z,101487.47
2022-08-27T12:21:15.303Z,101498.50
2022-08-27T12:23:52.019Z,101492.66
2022-08-27T12:26:32.125Z,101499.53
2022-08-27T12:29:36.595Z,101494.88
2022-08-27T12:32:25.026Z,101488.56
2022-08-27T12:37:30.741Z,101481.34
2022-08-27T12:40:01.862Z,101485.22
2022-08-27T12:42:29.767Z,101478.22
2022-08-27T12:44:59.828Z,101474.34
2022-08-27T12:47:28.158Z,101481.50
2022-08-27T12:49:59.499Z,101474.63
2022-08-27T12:52:56.694Z,101480.81
2022-08-27T12:55:36.510Z,101478.50
2022-08-27T12:58:15.820Z,101479.81
2022-08-27T13:01:07.448Z,101476.13
2022-08-27T13:03:39.655Z,101479.97
2022-08-27T13:06:18.283Z,101475.09
2022-08-27T13:08:46.741Z,101471.88
2022-08-27T13:11:21.832Z,101474.22
2022-08-27T13:13:49.868Z,101473.06
2022-08-27T13:16:21.690Z,101473.88
2022-08-27T13:18:50.582Z,101479.03
2022-08-27T13:21:23.978Z,101478.06
2022-08-27T13:23:57.595Z,101475.56
2022-08-27T13:26:29.554Z,101476.38
2022-08-27T13:29:03.345Z,101472.53
2022-08-27T13:31:34.409Z,101475.66
2022-08-27T13:34:06.608Z,101470.31
2022-08-27T13:36:38.063Z,101470.50
2022-08-27T13:39:08.398Z,101470.22
2022-08-27T13:41:38.556Z,101470.56
2022-08-27T13:44:12.810Z,101473.75
2022-08-27T13:46:48.758Z,101471.72
2022-08-27T13:49:22.279Z,101473.09
2022-08-27T13:51:51.708Z,101466.88
2022-08-27T13:54:19.766Z,101476.94
2022-08-27T13:57:03.685Z,101476.59
2022-08-27T13:59:33.078Z,101474.09
2022-08-27T14:02:16.745Z,101478.78
2022-08-27T14:04:46.638Z,101476.94
2022-08-27T14:07:23.739Z,101480.44
2022-08-27T14:09:54.839Z,101477.91
2022-08-27T14:12:33.235Z,101478.22
2022-08-27T14:15:19.260Z,101475.84
2022-08-27T14:17:49.047Z,101478.88
2022-08-27T14:20:19.359Z,101481.38
2022-08-27T14:22:47.579Z,101478.88
2022-08-27T14:25:16.527Z,101476.03
2022-08-27T14:27:53.100Z,101479.72
2022-08-27T14:30:28.873Z,101475.38
2022-08-27T14:33:00.344Z,101482.22
2022-08-27T14:35:28.545Z,101483.88
2022-08-27T14:37:56.599Z,101481.72
2022-08-27T14:40:24.640Z,101483.69
2022-08-27T14:42:53.146Z,101481.38
2022-08-27T14:45:21.219Z,101478.88
2022-08-27T14:47:49.118Z,101485.22
2022-08-27T14:50:18.583Z,101479.22
2022-08-27T14:52:49.204Z,101479.72
2022-08-27T14:55:17.131Z,101481.09
2022-08-27T14:57:45.406Z,101481.28
2022-08-27T15:00:13.748Z,101475.25
2022-08-27T15:02:48.144Z,101478.94
2022-08-27T15:05:18.778Z,101478.63
2022-08-27T15:07:50.588Z,101478.44
2022-08-27T15:10:19.243Z,101483.16
2022-08-27T15:12:47.194Z,101481.13
2022-08-27T15:15:15.635Z,101469.78
2022-08-27T15:17:43.950Z,101472.47
2022-08-27T15:20:20.305Z,101473.78
2022-08-27T15:22:53.065Z,101469.47
2022-08-27T15:25:22.499Z,101479.47
2022-08-27T15:27:50.620Z,101477.81
2022-08-27T15:30:24.243Z,101483.50
2022-08-27T15:32:52.195Z,101476.34
2022-08-27T15:35:23.136Z,101481.69
2022-08-27T15:37:54.070Z,101480.19
2022-08-27T15:40:22.798Z,101484.03
2022-08-27T15:42:56.223Z,101478.84
2022-08-27T15:45:27.393Z,101480.22
2022-08-27T15:47:55.862Z,101479.38
2022-08-27T15:50:24.680Z,101475.03
2022-08-27T15:52:58.566Z,101480.56
2022-08-27T15:55:29.512Z,101480.56
2022-08-27T15:57:58.455Z,101481.56
2022-08-27T16:00:26.863Z,101473.38
2022-08-27T16:02:55.348Z,101482.56
2022-08-27T16:05:23.813Z,101481.06
2022-08-27T16:07:51.986Z,101479.09
2022-08-27T16:10:21.416Z,101486.59
2022-08-27T16:12:49.310Z,101472.75
2022-08-27T16:15:17.409Z,101477.44
2022-08-27T16:17:46.199Z,101477.06
2022-08-27T16:20:16.754Z,101470.41
2022-08-27T16:22:45.975Z,101470.56
2022-08-27T16:25:18.453Z,101467.78
2022-08-27T16:27:48.122Z,101471.59
2022-08-27T16:30:16.142Z,101479.59
2022-08-27T16:32:47.135Z,101472.09
2022-08-27T16:35:16.080Z,101481.44
2022-08-27T16:37:45.038Z,101471.09
2022-08-27T16:40:15.107Z,101475.59
2022-08-27T16:42:45.971Z,101476.94
2022-08-27T16:45:17.014Z,101478.94
2022-08-27T16:48:02.672Z,101470.47
2022-08-27T16:50:36.999Z,101488.78
2022-08-27T16:53:09.018Z,101474.13
2022-08-27T16:55:37.911Z,101480.44
2022-08-27T16:58:07.262Z,101480.59
2022-08-27T17:00:38.641Z,101485.47
2022-08-27T17:03:07.827Z,101479.44
2022-08-27T17:05:35.742Z,101479.78
2022-08-27T17:08:05.524Z,101485.28
2022-08-27T17:10:37.722Z,101484.81
2022-08-27T17:13:05.663Z,101479.63
2022-08-27T17:15:33.876Z,101480.44
2022-08-27T17:18:03.906Z,101485.94
2022-08-27T17:20:33.502Z,101481.63
2022-08-27T17:23:01.636Z,101481.78
2022-08-27T17:25:30.604Z,101476.63
2022-08-27T17:28:00.445Z,101474.28
2022-08-27T17:30:28.896Z,101483.28
2022-08-27T17:32:57.036Z,101477.41
2022-08-27T17:35:26.355Z,101476.56
2022-08-27T17:37:54.692Z,101481.25
2022-08-27T17:40:22.854Z,101490.22
2022-08-27T17:42:50.980Z,101486.91
2022-08-27T17:45:19.055Z,101483.72
2022-08-27T17:47:46.912Z,101492.06
2022-08-27T17:50:14.831Z,101481.56
2022-08-27T17:52:44.518Z,101490.03
2022-08-27T17:55:12.503Z,101494.38
2022-08-27T17:57:41.566Z,101490.19
2022-08-27T18:00:11.973Z,101497.69
2022-08-27T18:02:45.236Z,101494.50
2022-08-27T18:05:13.969Z,101501.16
2022-08-27T18:07:44.222Z,101495.97
2022-08-27T18:10:16.266Z,101507.66
2022-08-27T18:12:46.010Z,101509.09
2022-08-27T18:15:21.032Z,101511.94
2022-08-27T18:17:53.163Z,101508.78
2022-08-27T18:20:23.537Z,101510.91
2022-08-27T18:22:54.965Z,101514.06
2022-08-27T18:25:26.157Z,101518.03
2022-08-27T18:27:57.485Z,101523.69
2022-08-27T18:30:26.508Z,101522.84
2022-08-27T18:32:54.459Z,101525.50
2022-08-27T18:35:24.955Z,101531.00
2022-08-27T18:37:54.306Z,101536.16
2022-08-27T18:40:25.374Z,101533.63
2022-08-27T18:42:54.116Z,101539.78
2022-08-27T18:45:27.014Z,101536.44
2022-08-27T18:47:59.137Z,101540.06
2022-08-27T18:50:27.606Z,101535.22
2022-08-27T18:52:58.053Z,101539.72
2022-08-27T18:55:28.058Z,101529.69
2022-08-27T18:57:55.970Z,101535.19
2022-08-27T19:00:25.179Z,101543.19
2022-08-27T19:02:53.802Z,101545.84
2022-08-27T19:05:26.949Z,101539.97
2022-08-27T19:07:58.275Z,101544.63
2022-08-27T19:10:27.263Z,101546.63
2022-08-27T19:12:55.250Z,101546.78
2022-08-27T19:15:23.155Z,101547.75
2022-08-27T19:17:54.927Z,101548.75
2022-08-27T19:20:23.646Z,101551.56
2022-08-27T19:22:51.650Z,101556.19
2022-08-27T19:25:21.438Z,101558.06
2022-08-27T19:27:49.744Z,101551.34
2022-08-27T19:30:18.398Z,101538.19
2022-08-27T19:32:46.697Z,101538.34
2022-08-27T19:35:15.233Z,101543.97
2022-08-27T19:37:48.018Z,101534.66
2022-08-27T19:40:23.355Z,101532.13
2022-08-27T19:42:51.865Z,101535.81
2022-08-27T19:45:23.745Z,101517.31
2022-08-27T19:47:52.840Z,101516.63
2022-08-27T19:50:21.475Z,101514.97
2022-08-27T19:52:49.662Z,101512.78
2022-08-27T19:55:17.719Z,101512.09
2022-08-27T19:57:48.427Z,101512.25
2022-08-27T20:00:20.657Z,101507.06
2022-08-27T20:02:50.638Z,101502.06
2022-08-27T20:05:19.966Z,101497.19
2022-08-27T20:07:48.420Z,101500.88
2022-08-27T20:10:16.776Z,101501.88
2022-08-27T20:12:46.293Z,101514.31
2022-08-27T20:15:15.160Z,101509.00
2022-08-27T20:17:44.078Z,101516.13
2022-08-27T20:20:13.690Z,101518.78
2022-08-27T20:22:41.886Z,101509.16
2022-08-27T20:25:10.854Z,101514.47
2022-08-27T20:27:39.242Z,101515.47
2022-08-27T20:30:12.054Z,101519.94
2022-08-27T20:32:40.043Z,101512.97
2022-08-27T20:35:09.935Z,101523.75
2022-08-27T20:37:41.923Z,101531.06
2022-08-27T20:40:15.923Z,101541.69
2022-08-27T20:42:44.410Z,101546.16
2022-08-27T20:45:14.565Z,101537.53
2022-08-27T20:47:44.627Z,101538.34
2022-08-27T20:50:13.386Z,101533.88
2022-08-27T20:52:41.490Z,101523.06
2022-08-27T20:55:12.205Z,101528.53
2022-08-27T20:58:11.651Z,101537.53
2022-08-27T21:00:41.712Z,101555.16
2022-08-27T21:03:10.226Z,101568.44
2022-08-27T21:05:39.133Z,101589.03
2022-08-27T21:08:08.360Z,101638.03
2022-08-27T21:10:36.759Z,101681.03
2022-08-27T21:13:07.319Z,101711.88
2022-08-27T21:15:36.878Z,101705.13
2022-08-27T21:18:06.571Z,101708.63
2022-08-27T21:20:34.698Z,101669.69
2022-08-27T21:23:02.723Z,101664.13
2022-08-27T21:25:30.701Z,101674.31
2022-08-27T21:28:00.346Z,101649.59
2022-08-27T21:30:28.578Z,101643.34
2022-08-27T21:32:57.474Z,101641.91
2022-08-27T21:35:28.639Z,101645.00
2022-08-27T21:37:57.806Z,101641.78
2022-08-27T21:40:28.147Z,101651.69
2022-08-27T21:42:57.441Z,101639.41
2022-08-27T21:45:25.619Z,101626.16
2022-08-27T21:47:54.212Z,101625.03
2022-08-27T21:50:23.590Z,101629.78
2022-08-27T21:52:53.619Z,101615.34
2022-08-27T21:55:22.167Z,101615.22
2022-08-27T21:57:50.097Z,101615.63
2022-08-27T22:00:38.957Z,101620.09
2022-08-27T22:03:10.269Z,101614.25
2022-08-27T22:05:41.114Z,101614.38
2022-08-27T22:08:11.837Z,101624.28
2022-08-27T22:10:42.126Z,101619.84
2022-08-27T22:13:10.437Z,101614.66
2022-08-27T22:15:38.946Z,101606.84
2022-08-27T22:18:07.493Z,101607.94
2022-08-27T22:20:35.659Z,101617.59
2022-08-27T22:23:08.045Z,101614.38
2022-08-27T22:25:37.847Z,101607.53
2022-08-27T22:28:06.321Z,101612.00
2022-08-27T22:30:34.565Z,101609.34
2022-08-27T22:33:02.814Z,101612.00
2022-08-27T22:35:30.775Z,101594.69
2022-08-27T22:37:58.745Z,101602.78
2022-08-27T22:40:29.257Z,101604.00
2022-08-27T22:42:59.914Z,101597.88
2022-08-27T22:45:29.079Z,101592.59
2022-08-27T22:47:57.374Z,101598.84
2022-08-27T22:50:25.845Z,101599.84
2022-08-27T22:52:54.267Z,101597.03
2022-08-27T22:55:24.181Z,101605.13
2022-08-27T22:57:54.138Z,101604.41
2022-08-27T23:00:27.249Z,101604.28
2022-08-27T23:02:55.692Z,101591.03
2022-08-27T23:05:24.504Z,101588.94
2022-08-27T23:07:54.858Z,101586.81
2022-08-27T23:10:25.011Z,101590.47
2022-08-27T23:12:54.243Z,101594.34
2022-08-27T23:15:28.570Z,101598.81
2022-08-27T23:17:56.931Z,101593.50
2022-08-27T23:20:25.518Z,101597.16
2022-08-27T23:22:55.346Z,101587.53
2022-08-27T23:25:43.523Z,101587.53
2022-08-27T23:28:14.844Z,101586.69
2022-08-27T23:30:46.318Z,101581.53
2022-08-27T23:33:15.840Z,101585.16
2022-08-27T23:35:48.141Z,101569.53
2022-08-27T23:38:16.584Z,101573.84
2022-08-27T23:40:45.479Z,101577.34
2022-08-27T23:43:14.113Z,101562.41
2022-08-27T23:45:42.508Z,101567.97
2022-08-27T23:48:12.031Z,101565.44
2022-08-27T23:50:40.831Z,101567.41
2022-08-27T23:53:09.281Z,101563.06
2022-08-27T23:55:38.565Z,101563.06
2022-08-27T23:58:07.704Z,101565.84
